Time;durP1;ratioP1;P1;durP2;ratioP2;P2;SDS_P1;SDS_P2;PMS_P1;PMS_P2;Temp;Humidity;BMP_temperature;BMP_pressure;BME280_temperature;BME280_humidity;BME280_pressure;Samples;Min_cycle;Max_cycle;Signal;HPM_P1;HPM_P2
2021/10/22 00:00:16;;;;;;;2.13;2.00;;;8.80;79.00;;;;;;5056072;28;20182;-81
2021/10/22 00:02:42;;;;;;;2.60;2.50;;;8.80;77.10;;;;;;5056365;28;20252;-83
2021/10/22 00:05:09;;;;;;;3.07;2.50;;;8.70;78.50;;;;;;5056060;28;20410;-82
2021/10/22 00:07:34;;;;;;;4.03;2.40;;;8.80;79.10;;;;;;5055681;28;20972;-83
2021/10/22 00:10:00;;;;;;;3.43;3.10;;;8.70;77.60;;;;;;5055792;28;20498;-83
2021/10/22 00:12:26;;;;;;;2.30;2.10;;;8.70;76.10;;;;;;5073747;28;20211;-83
2021/10/22 00:14:52;;;;;;;2.77;2.23;;;8.70;77.00;;;;;;5055759;28;20445;-83
2021/10/22 00:17:18;;;;;;;2.20;2.00;;;8.70;76.70;;;;;;5055591;28;20183;-83
2021/10/22 00:19:44;;;;;;;2.23;2.03;;;8.60;75.10;;;;;;5055640;28;20177;-83
2021/10/22 00:22:10;;;;;;;2.50;2.30;;;8.60;75.60;;;;;;5073487;28;20508;-82
2021/10/22 00:24:35;;;;;;;1.73;1.63;;;8.60;75.50;;;;;;5055581;28;20547;-82
2021/10/22 00:27:01;;;;;;;4.00;2.17;;;8.60;75.50;;;;;;5055242;28;20659;-83
2021/10/22 00:29:26;;;;;;;2.50;2.10;;;8.60;75.80;;;;;;5055695;28;20175;-81
2021/10/22 00:31:52;;;;;;;2.63;2.30;;;8.60;74.70;;;;;;5055302;28;20175;-83
2021/10/22 00:34:18;;;;;;;2.60;1.80;;;8.60;73.50;;;;;;5055403;28;20218;-83
2021/10/22 00:36:43;;;;;;;4.13;1.50;;;8.50;75.80;;;;;;5055064;28;20183;-83
2021/10/22 00:39:10;;;;;;;2.10;1.50;;;8.50;73.90;;;;;;5054925;28;20175;-83
2021/10/22 00:41:38;;;;;;;2.90;1.80;;;8.50;74.30;;;;;;5055173;28;20175;-83
2021/10/22 00:44:04;;;;;;;2.77;2.27;;;8.50;73.70;;;;;;5055220;28;20425;-81
2021/10/22 00:46:30;;;;;;;1.97;1.87;;;8.50;72.60;;;;;;5072880;28;20445;-82
2021/10/22 00:48:57;;;;;;;2.10;1.90;;;8.50;73.40;;;;;;5055091;28;20911;-82
2021/10/22 00:51:24;;;;;;;2.00;1.80;;;8.50;73.70;;;;;;5054908;28;20417;-82
2021/10/22 00:53:50;;;;;;;1.83;1.73;;;8.50;73.00;;;;;;5055004;28;20410;-82
2021/10/22 00:56:16;;;;;;;1.90;1.80;;;8.50;73.80;;;;;;5054951;28;20410;-82
2021/10/22 00:58:42;;;;;;;1.80;1.70;;;8.50;74.10;;;;;;5054859;28;20448;-83
2021/10/22 01:01:09;;;;;;;2.40;1.63;;;8.50;69.70;;;;;;5055152;28;20416;-82
2021/10/22 01:03:34;;;;;;;4.63;2.30;;;8.40;68.80;;;;;;5055751;28;20959;-82
2021/10/22 01:06:01;;;;;;;2.30;2.03;;;8.40;69.30;;;;;;5055629;28;20460;-81
2021/10/22 01:08:29;;;;;;;3.30;1.90;;;8.40;68.80;;;;;;5055181;28;20179;-82
2021/10/22 01:10:55;;;;;;;2.70;2.10;;;8.30;68.50;;;;;;5054889;28;20418;-82
2021/10/22 01:13:21;;;;;;;2.27;2.07;;;8.40;70.00;;;;;;5054552;28;20501;-82
2021/10/22 01:15:47;;;;;;;6.47;2.23;;;8.40;69.10;;;;;;5054688;28;20425;-82
2021/10/22 01:18:12;;;;;;;2.17;2.00;;;8.30;70.00;;;;;;5054278;28;20186;-82
2021/10/22 01:20:42;;;;;;;2.27;2.07;;;8.30;70.60;;;;;;5054892;28;20236;-82
2021/10/22 01:23:08;;;;;;;3.13;2.37;;;8.30;68.80;;;;;;5072467;28;20533;-82
2021/10/22 01:25:34;;;;;;;3.30;2.67;;;8.30;69.00;;;;;;5054567;28;20555;-82
2021/10/22 01:28:00;;;;;;;3.70;2.30;;;8.30;69.00;;;;;;5054190;28;20976;-82
2021/10/22 01:30:27;;;;;;;3.27;2.13;;;8.30;66.70;;;;;;5054574;28;20414;-82
2021/10/22 01:33:01;;;;;;;5.27;2.03;;;8.30;69.20;;;;;;5054458;28;20230;-82
2021/10/22 01:35:27;;;;;;;2.30;2.10;;;8.30;71.20;;;;;;5037698;28;20438;-83
2021/10/22 01:37:53;;;;;;;3.00;1.80;;;8.40;71.00;;;;;;5054035;28;20417;-82
2021/10/22 01:40:19;;;;;;;1.97;1.87;;;8.40;71.50;;;;;;5054467;28;20471;-83
2021/10/22 01:42:45;;;;;;;2.90;1.90;;;8.40;70.30;;;;;;5054125;28;20424;-83
2021/10/22 01:45:11;;;;;;;5.37;2.50;;;8.40;67.90;;;;;;5054362;28;20402;-82
2021/10/22 01:47:37;;;;;;;3.13;2.13;;;8.30;70.20;;;;;;5053832;28;20461;-82
2021/10/22 01:50:04;;;;;;;3.63;2.10;;;8.40;70.20;;;;;;5053335;28;20409;-82
2021/10/22 01:52:30;;;;;;;4.73;1.90;;;8.30;68.80;;;;;;5054473;28;20757;-82
2021/10/22 01:54:56;;;;;;;2.47;1.70;;;8.30;69.30;;;;;;5054114;28;20416;-82
2021/10/22 01:57:21;;;;;;;3.37;2.17;;;8.30;69.90;;;;;;5053736;28;20662;-83
2021/10/22 01:59:49;;;;;;;10.70;2.30;;;8.40;69.20;;;;;;5054042;28;20179;-83
2021/10/22 02:02:15;;;;;;;2.30;2.00;;;8.30;70.60;;;;;;5054528;28;20418;-82
2021/10/22 02:04:41;;;;;;;2.23;1.97;;;8.30;70.70;;;;;;5054032;28;20416;-82
2021/10/22 02:07:07;;;;;;;3.50;2.40;;;8.30;68.80;;;;;;5053905;28;20588;-82
2021/10/22 02:09:32;;;;;;;4.23;2.33;;;8.20;70.10;;;;;;5053842;28;20202;-82
2021/10/22 02:11:58;;;;;;;4.57;2.00;;;8.20;69.00;;;;;;5054074;28;20171;-83
2021/10/22 02:14:24;;;;;;;2.80;1.83;;;8.20;70.40;;;;;;5053694;28;20179;-83
2021/10/22 02:16:49;;;;;;;2.20;1.87;;;8.20;68.40;;;;;;5053909;28;20178;-83
2021/10/22 02:19:15;;;;;;;8.33;2.60;;;8.10;69.90;;;;;;5053859;28;20658;-82
2021/10/22 02:21:42;;;;;;;2.80;1.80;;;8.10;69.10;;;;;;5053882;28;20190;-84
2021/10/22 02:24:08;;;;;;;2.70;2.10;;;8.10;70.10;;;;;;5053565;28;20185;-82
2021/10/22 02:26:34;;;;;;;6.40;2.10;;;8.10;69.50;;;;;;5053887;28;20543;-82
2021/10/22 02:29:00;;;;;;;5.53;2.17;;;8.10;68.90;;;;;;5053515;28;20171;-82
2021/10/22 02:31:26;;;;;;;1.87;1.70;;;8.00;67.60;;;;;;5053850;28;20820;-83
2021/10/22 02:33:52;;;;;;;6.50;2.50;;;8.00;69.10;;;;;;5053524;28;20428;-83
2021/10/22 02:36:17;;;;;;;5.77;2.30;;;8.00;68.30;;;;;;5053956;28;21001;-83
2021/10/22 02:38:44;;;;;;;3.30;2.13;;;7.90;67.70;;;;;;5053337;28;20227;-84
2021/10/22 02:41:10;;;;;;;9.00;2.30;;;8.00;69.50;;;;;;5053977;28;20647;-83
2021/10/22 02:43:36;;;;;;;2.73;2.43;;;7.90;67.90;;;;;;5053590;28;20772;-83
2021/10/22 02:46:03;;;;;;;3.20;2.10;;;7.90;67.40;;;;;;5054380;28;20568;-83
2021/10/22 02:48:29;;;;;;;3.17;2.10;;;7.90;67.40;;;;;;5053501;28;20417;-83
2021/10/22 02:50:55;;;;;;;4.03;2.20;;;7.80;67.20;;;;;;5053480;28;20428;-83
2021/10/22 02:53:20;;;;;;;4.23;2.20;;;7.90;67.50;;;;;;5053461;28;20172;-83
2021/10/22 02:55:46;;;;;;;6.77;3.00;;;7.80;66.50;;;;;;5053662;28;20475;-83
2021/10/22 02:58:11;;;;;;;2.90;2.23;;;7.80;65.60;;;;;;5053475;28;20175;-83
2021/10/22 03:00:37;;;;;;;7.23;2.80;;;7.70;65.10;;;;;;5054414;28;20175;-83
2021/10/22 03:03:04;;;;;;;4.40;2.83;;;7.70;66.80;;;;;;5057153;28;20221;-83
2021/10/22 03:05:30;;;;;;;5.40;2.30;;;7.80;66.50;;;;;;5057084;28;20182;-83
2021/10/22 03:07:56;;;;;;;4.27;2.40;;;7.80;65.20;;;;;;5056946;28;20436;-83
2021/10/22 03:10:22;;;;;;;6.63;2.50;;;7.70;65.30;;;;;;5057118;28;20429;-83
2021/10/22 03:12:48;;;;;;;4.70;2.67;;;7.70;64.90;;;;;;5057048;28;20308;-83
2021/10/22 03:15:13;;;;;;;4.40;2.63;;;7.70;64.90;;;;;;5056911;28;20543;-83
2021/10/22 03:17:39;;;;;;;7.90;2.83;;;7.60;65.50;;;;;;5056761;28;20240;-83
2021/10/22 03:20:05;;;;;;;6.03;2.87;;;7.60;65.50;;;;;;5056865;28;20205;-82
2021/10/22 03:22:32;;;;;;;4.90;3.30;;;7.60;65.70;;;;;;5056880;28;20277;-82
2021/10/22 03:24:58;;;;;;;5.27;3.50;;;7.70;66.00;;;;;;5056765;28;20420;-82
2021/10/22 03:27:26;;;;;;;4.10;2.30;;;7.60;65.60;;;;;;5056713;28;21098;-82
2021/10/22 03:29:52;;;;;;;15.70;11.57;;;7.60;66.70;;;;;;5056662;28;20191;-83
2021/10/22 03:32:18;;;;;;;11.27;3.20;;;7.50;67.00;;;;;;5056901;28;20429;-85
2021/10/22 03:34:43;;;;;;;3.93;2.30;;;7.40;67.80;;;;;;5056802;28;20444;-82
2021/10/22 03:37:09;;;;;;;3.60;2.70;;;7.40;66.70;;;;;;5057186;28;20186;-84
2021/10/22 03:39:35;;;;;;;6.63;3.07;;;7.40;67.50;;;;;;5057080;28;20183;-83
2021/10/22 03:42:00;;;;;;;5.33;3.10;;;7.30;67.10;;;;;;5057207;28;20183;-85
2021/10/22 03:44:26;;;;;;;9.07;2.70;;;7.30;67.60;;;;;;5057253;28;20265;-82
2021/10/22 03:46:53;;;;;;;7.13;2.80;;;7.40;67.20;;;;;;5056648;28;20211;-83
2021/10/22 03:49:18;;;;;;;5.40;3.47;;;7.40;66.70;;;;;;5056756;28;20247;-83
2021/10/22 03:51:44;;;;;;;6.30;2.63;;;7.40;65.80;;;;;;5057277;28;20920;-83
2021/10/22 03:54:10;;;;;;;5.13;2.50;;;7.40;66.70;;;;;;5056881;28;20175;-84
2021/10/22 03:56:35;;;;;;;8.20;2.70;;;7.30;66.40;;;;;;5056583;28;20187;-84
2021/10/22 03:59:01;;;;;;;4.07;2.40;;;7.20;67.10;;;;;;5056892;28;20237;-83
2021/10/22 04:01:27;;;;;;;5.83;2.97;;;7.20;67.20;;;;;;5056631;28;20186;-84
2021/10/22 04:03:53;;;;;;;4.47;3.03;;;7.10;66.60;;;;;;5056636;28;20273;-83
2021/10/22 04:06:18;;;;;;;7.07;2.90;;;7.10;66.90;;;;;;5074434;28;20549;-82
2021/10/22 04:08:44;;;;;;;4.20;2.60;;;7.10;67.70;;;;;;5056391;28;20184;-81
2021/10/22 04:11:10;;;;;;;5.97;3.63;;;7.00;69.40;;;;;;5056326;28;20176;-83
2021/10/22 04:13:35;;;;;;;5.33;2.47;;;7.10;66.30;;;;;;5055098;28;20722;-83
2021/10/22 04:16:01;;;;;;;4.27;2.47;;;7.20;66.10;;;;;;5056150;28;20632;-83
2021/10/22 04:18:27;;;;;;;5.27;3.10;;;7.30;67.30;;;;;;5050389;28;20664;-82
2021/10/22 04:20:53;;;;;;;3.80;3.30;;;7.40;65.60;;;;;;5054963;28;20199;-83
2021/10/22 04:23:19;;;;;;;8.67;3.40;;;7.40;66.30;;;;;;5055797;28;20561;-83
2021/10/22 04:25:45;;;;;;;6.80;3.27;;;7.30;66.40;;;;;;5055604;28;20413;-83
2021/10/22 04:28:11;;;;;;;3.70;2.70;;;7.30;66.40;;;;;;5055851;28;20421;-84
2021/10/22 04:30:39;;;;;;;6.07;2.50;;;7.40;65.90;;;;;;5055705;28;20213;-83
2021/10/22 04:33:05;;;;;;;7.20;3.00;;;7.40;66.00;;;;;;5055401;28;20420;-83
2021/10/22 04:35:31;;;;;;;4.30;2.70;;;7.50;65.50;;;;;;5053024;28;20529;-84
2021/10/22 04:42:57;;;;;;;6.57;2.50;;;7.50;64.10;;;;;;5053587;28;20415;-82
2021/10/22 04:45:22;;;;;;;6.30;3.00;;;7.50;64.00;;;;;;5035510;28;20497;-83
2021/10/22 04:47:49;;;;;;;12.30;3.90;;;7.50;63.70;;;;;;5052704;28;20469;-83
2021/10/22 04:50:15;;;;;;;7.57;2.73;;;7.50;64.10;;;;;;5035640;28;20421;-83
2021/10/22 04:52:41;;;;;;;2.83;2.27;;;7.50;64.60;;;;;;5035334;28;20226;-82
2021/10/22 04:55:09;;;;;;;4.00;2.97;;;7.40;64.60;;;;;;5035225;28;20910;-83
2021/10/22 04:57:36;;;;;;;4.90;2.57;;;7.40;66.50;;;;;;5035119;28;20423;-83
2021/10/22 05:00:04;;;;;;;7.53;3.30;;;7.40;64.80;;;;;;5035044;28;20421;-83
2021/10/22 05:02:30;;;;;;;10.60;3.27;;;7.40;64.10;;;;;;5034880;28;20428;-83
2021/10/22 05:04:55;;;;;;;6.87;3.70;;;7.40;63.20;;;;;;5034716;28;20492;-83
2021/10/22 05:07:21;;;;;;;5.70;2.77;;;7.30;63.20;;;;;;5035076;28;20218;-82
2021/10/22 05:09:47;;;;;;;6.67;3.03;;;7.30;64.70;;;;;;5035036;28;20234;-83
2021/10/22 05:12:12;;;;;;;9.20;3.63;;;7.30;63.70;;;;;;5034657;28;20187;-82
2021/10/22 05:14:38;;;;;;;6.00;3.23;;;7.30;64.70;;;;;;5035096;28;20655;-83
2021/10/22 05:17:04;;;;;;;5.93;3.20;;;7.30;63.30;;;;;;5034568;28;20180;-82
2021/10/22 05:19:30;;;;;;;8.20;3.30;;;7.30;64.20;;;;;;5052846;28;20175;-83
2021/10/22 05:21:56;;;;;;;11.07;3.20;;;7.20;63.00;;;;;;5034746;28;20448;-84
2021/10/22 05:24:23;;;;;;;7.60;3.30;;;7.20;62.10;;;;;;5034831;28;20457;-82
2021/10/22 05:26:50;;;;;;;6.10;3.03;;;7.20;62.40;;;;;;5034463;28;20219;-82
2021/10/22 05:29:16;;;;;;;7.57;2.73;;;7.10;61.80;;;;;;5034631;28;20491;-82
2021/10/22 05:31:41;;;;;;;4.30;3.00;;;7.10;62.60;;;;;;5034646;28;20449;-82
2021/10/22 05:34:07;;;;;;;4.90;3.03;;;7.10;62.50;;;;;;5034135;28;20469;-82
2021/10/22 05:36:33;;;;;;;5.43;3.43;;;7.10;62.00;;;;;;5034587;28;20180;-82
2021/10/22 05:38:59;;;;;;;8.90;3.50;;;7.00;61.90;;;;;;5034197;28;20187;-83
2021/10/22 05:41:24;;;;;;;3.70;2.80;;;6.90;63.00;;;;;;5034506;28;20210;-83
2021/10/22 05:43:50;;;;;;;7.10;2.70;;;7.10;63.60;;;;;;5052012;28;20259;-84
2021/10/22 05:46:19;;;;;;;4.23;3.20;;;7.10;62.30;;;;;;5034483;28;20553;-82
2021/10/22 05:48:45;;;;;;;9.77;3.80;;;7.10;63.50;;;;;;5051771;28;20531;-81
2021/10/22 05:51:14;;;;;;;7.70;3.43;;;7.20;62.50;;;;;;5034493;28;20414;-81
2021/10/22 05:53:40;;;;;;;7.60;3.00;;;7.10;62.10;;;;;;5034175;28;20921;-81
2021/10/22 05:56:09;;;;;;;3.93;3.13;;;7.10;62.30;;;;;;5034191;28;20766;-83
2021/10/22 05:58:35;;;;;;;4.07;2.70;;;7.10;61.30;;;;;;5051734;28;20505;-82
2021/10/22 06:01:02;;;;;;;6.90;3.43;;;7.10;62.10;;;;;;5034452;28;20426;-83
2021/10/22 06:03:28;;;;;;;4.70;3.00;;;7.00;62.90;;;;;;5034215;28;20425;-82
2021/10/22 06:05:54;;;;;;;7.03;3.10;;;7.00;61.90;;;;;;5033994;28;20432;-82
2021/10/22 06:08:21;;;;;;;10.30;3.97;;;7.10;62.90;;;;;;5034093;28;20176;-82
2021/10/22 06:10:47;;;;;;;8.53;3.20;;;7.00;63.20;;;;;;5034316;28;20414;-83
2021/10/22 06:13:15;;;;;;;10.43;3.60;;;7.00;62.70;;;;;;5034518;28;20511;-82
2021/10/22 06:15:42;;;;;;;6.70;4.03;;;7.10;62.80;;;;;;5034153;28;20440;-81
2021/10/22 06:18:08;;;;;;;5.67;3.10;;;7.00;62.00;;;;;;5034073;28;20862;-81
2021/10/22 06:25:42;;;;;;;10.23;3.20;;;7.20;62.60;;;;;;5052211;28;20425;-82
2021/10/22 06:28:11;;;;;;;14.00;3.63;;;7.20;61.20;;;;;;5033697;28;20428;-82
2021/10/22 06:30:37;;;;;;;5.33;3.50;;;7.10;61.60;;;;;;5033718;28;21022;-83
2021/10/22 06:33:03;;;;;;;8.53;3.70;;;7.10;61.30;;;;;;5033992;28;20509;-83
2021/10/22 06:35:29;;;;;;;12.40;4.20;;;7.10;60.60;;;;;;5034613;28;20531;-83
2021/10/22 06:37:55;;;;;;;7.00;2.93;;;7.20;60.40;;;;;;5037412;28;20529;-83
2021/10/22 06:40:21;;;;;;;7.80;3.70;;;7.20;60.90;;;;;;5037700;28;20418;-83
2021/10/22 06:42:47;;;;;;;7.93;3.10;;;7.20;61.00;;;;;;5037562;28;20790;-83
2021/10/22 06:45:13;;;;;;;7.60;3.00;;;7.20;60.70;;;;;;5037537;28;20422;-83
2021/10/22 06:47:39;;;;;;;8.40;3.40;;;7.30;60.80;;;;;;5037159;28;20467;-82
2021/10/22 06:50:06;;;;;;;4.00;3.30;;;7.30;60.60;;;;;;5037593;28;20471;-81
2021/10/22 06:52:31;;;;;;;10.20;3.83;;;7.30;60.60;;;;;;5037457;28;20424;-83
2021/10/22 06:54:57;;;;;;;7.90;3.67;;;7.30;60.30;;;;;;5037351;28;20508;-81
2021/10/22 06:57:24;;;;;;;8.20;4.00;;;7.40;60.90;;;;;;5037372;28;20587;-81
2021/10/22 06:59:50;;;;;;;4.83;3.37;;;7.40;60.90;;;;;;5042251;28;20186;-82
2021/10/22 07:02:15;;;;;;;10.20;3.27;;;7.30;60.40;;;;;;5065398;28;20411;-81
2021/10/22 07:04:48;;;;;;;11.43;3.47;;;7.30;60.00;;;;;;5048532;28;20631;-82
2021/10/22 07:07:15;;;;;;;9.60;3.03;;;7.30;60.10;;;;;;5056865;28;20623;-82
2021/10/22 07:09:42;;;;;;;6.97;3.43;;;7.30;59.80;;;;;;5056537;28;20513;-82
2021/10/22 07:12:08;;;;;;;7.93;3.50;;;7.30;60.60;;;;;;5056374;28;20826;-82
2021/10/22 07:14:35;;;;;;;4.90;3.43;;;7.30;59.90;;;;;;5056504;28;20928;-82
2021/10/22 07:17:04;;;;;;;11.67;3.90;;;7.40;58.90;;;;;;5056583;28;20771;-81
2021/10/22 07:19:30;;;;;;;15.60;4.13;;;7.40;57.80;;;;;;5056380;28;20417;-82
2021/10/22 07:22:01;;;;;;;4.30;3.03;;;7.40;59.40;;;;;;5056898;28;20563;-83
2021/10/22 07:24:26;;;;;;;9.23;3.50;;;7.50;58.40;;;;;;5056810;28;20806;-82
2021/10/22 07:26:52;;;;;;;8.73;3.63;;;7.50;58.00;;;;;;5056394;28;20660;-81
2021/10/22 07:29:18;;;;;;;9.20;4.27;;;7.60;58.30;;;;;;5056546;28;20192;-82
2021/10/22 07:31:45;;;;;;;4.90;2.50;;;7.60;57.70;;;;;;5056180;28;20849;-82
2021/10/22 07:34:14;;;;;;;5.17;3.60;;;7.60;57.40;;;;;;5056345;28;20466;-82
2021/10/22 07:36:40;;;;;;;11.93;3.73;;;7.60;58.10;;;;;;5055881;28;20425;-82
2021/10/22 07:39:06;;;;;;;8.40;2.87;;;7.60;56.60;;;;;;5056642;28;20759;-82
2021/10/22 07:41:32;;;;;;;8.50;3.53;;;7.70;57.40;;;;;;5056124;28;20425;-80
2021/10/22 07:43:58;;;;;;;9.33;3.23;;;7.70;57.60;;;;;;5056579;28;20467;-80
2021/10/22 07:46:24;;;;;;;10.23;3.70;;;7.70;57.10;;;;;;5055889;28;20812;-81
2021/10/22 07:48:49;;;;;;;13.87;3.33;;;7.70;58.70;;;;;;5054915;28;20210;-80
2021/10/22 07:51:15;;;;;;;10.07;3.57;;;7.80;57.80;;;;;;5056083;28;20167;-80
2021/10/22 07:53:41;;;;;;;9.90;4.67;;;7.80;56.80;;;;;;5055880;28;20182;-82
2021/10/22 07:56:08;;;;;;;6.87;2.97;;;7.90;57.90;;;;;;5074184;28;20178;-81
2021/10/22 07:58:34;;;;;;;8.60;3.70;;;7.90;57.80;;;;;;5055489;28;20425;-83
2021/10/22 08:00:59;;;;;;;3.80;2.83;;;8.00;57.30;;;;;;5056039;28;20448;-83
2021/10/22 08:03:25;;;;;;;5.60;2.87;;;8.00;58.90;;;;;;5055726;28;20758;-81
2021/10/22 08:05:51;;;;;;;10.93;4.83;;;8.10;55.60;;;;;;5055731;28;20175;-81
2021/10/22 08:08:17;;;;;;;9.90;3.17;;;8.20;56.40;;;;;;5055791;28;21027;-81
2021/10/22 08:10:43;;;;;;;5.00;2.87;;;8.30;54.10;;;;;;5055595;28;20477;-82
2021/10/22 08:13:11;;;;;;;11.50;2.97;;;8.30;56.00;;;;;;5055861;28;20697;-83
2021/10/22 08:15:39;;;;;;;5.37;3.30;;;8.30;54.90;;;;;;5055154;28;20210;-82
2021/10/22 08:18:06;;;;;;;9.20;3.57;;;8.40;54.30;;;;;;5055570;28;20470;-82
2021/10/22 08:20:35;;;;;;;12.47;3.53;;;8.50;55.50;;;;;;5055040;28;21012;-82
2021/10/22 08:23:01;;;;;;;7.10;3.40;;;8.50;53.90;;;;;;5055827;28;20421;-83
2021/10/22 08:25:27;;;;;;;19.27;5.23;;;8.50;51.70;;;;;;5055352;28;20836;-82
2021/10/22 08:27:52;;;;;;;5.60;3.23;;;8.50;50.80;;;;;;5055306;28;20540;-83
2021/10/22 08:30:22;;;;;;;9.77;3.13;;;8.50;50.80;;;;;;5055563;28;20519;-83
2021/10/22 08:32:55;;;;;;;10.57;3.10;;;8.60;49.40;;;;;;5055019;28;20988;-82
2021/10/22 08:35:26;;;;;;;4.63;2.23;;;8.70;49.70;;;;;;5055327;28;20853;-83
2021/10/22 08:37:52;;;;;;;5.27;3.60;;;8.70;51.30;;;;;;5055154;28;20417;-83
2021/10/22 08:40:19;;;;;;;8.90;3.87;;;8.70;50.90;;;;;;5055612;28;20505;-83
2021/10/22 08:42:46;;;;;;;7.47;3.00;;;8.80;51.40;;;;;;5056006;28;20420;-83
2021/10/22 08:45:13;;;;;;;7.43;2.90;;;8.80;49.30;;;;;;5056062;28;20417;-83
2021/10/22 08:47:40;;;;;;;9.63;3.10;;;8.70;49.10;;;;;;5054641;28;20465;-81
2021/10/22 08:50:12;;;;;;;7.87;3.27;;;8.70;49.00;;;;;;5054947;28;20463;-81
2021/10/22 08:52:40;;;;;;;6.67;2.70;;;8.70;48.50;;;;;;5055220;28;20483;-81
2021/10/22 08:55:08;;;;;;;8.07;3.57;;;8.70;48.90;;;;;;5054529;28;20504;-81
2021/10/22 08:57:38;;;;;;;6.13;2.53;;;8.80;49.20;;;;;;5054610;28;20445;-81
2021/10/22 09:00:06;;;;;;;9.67;3.40;;;8.90;48.30;;;;;;5054195;28;20831;-81
2021/10/22 09:02:31;;;;;;;7.27;2.80;;;8.80;46.50;;;;;;5054853;28;20504;-81
2021/10/22 09:05:07;;;;;;;9.70;2.70;;;8.90;48.10;;;;;;5054397;28;20445;-81
2021/10/22 09:07:41;;;;;;;4.80;2.70;;;8.80;46.00;;;;;;5054763;28;20568;-81
2021/10/22 09:10:12;;;;;;;5.47;2.23;;;9.00;47.00;;;;;;5054430;28;20417;-81
2021/10/22 09:13:03;;;;;;;7.57;3.03;;;9.00;46.90;;;;;;5054550;28;20452;-81
2021/10/22 09:15:32;;;;;;;5.50;2.50;;;9.00;47.30;;;;;;5053712;28;20495;-81
2021/10/22 09:18:00;;;;;;;7.57;2.70;;;9.10;46.00;;;;;;5054574;28;20414;-82
2021/10/22 09:20:28;;;;;;;5.73;2.50;;;9.20;46.80;;;;;;5054340;28;20421;-82
2021/10/22 09:23:02;;;;;;;4.30;2.50;;;9.20;44.80;;;;;;5054350;28;20497;-82
2021/10/22 09:25:32;;;;;;;2.63;2.10;;;9.30;45.10;;;;;;5054350;28;20418;-83
2021/10/22 09:28:03;;;;;;;8.43;3.13;;;9.30;46.00;;;;;;5054004;28;20513;-83
2021/10/22 09:30:38;;;;;;;6.07;2.70;;;9.40;44.80;;;;;;5054776;28;20755;-83
2021/10/22 09:33:06;;;;;;;5.83;2.70;;;9.40;44.70;;;;;;5054536;28;20413;-82
2021/10/22 09:35:43;;;;;;;7.43;4.83;;;9.50;46.30;;;;;;5054046;28;20474;-82
2021/10/22 09:38:30;;;;;;;6.80;2.83;;;9.60;47.10;;;;;;5053779;28;20474;-82
2021/10/22 09:41:04;;;;;;;3.70;3.03;;;9.60;46.40;;;;;;5053816;28;20437;-83
2021/10/22 09:43:32;;;;;;;7.83;3.77;;;9.70;45.20;;;;;;5054148;28;20766;-82
2021/10/22 09:46:23;;;;;;;4.93;2.50;;;9.80;45.70;;;;;;5054511;28;20498;-83
2021/10/22 09:48:56;;;;;;;4.93;2.43;;;9.80;42.70;;;;;;5053599;28;20830;-83
2021/10/22 09:51:38;;;;;;;3.53;2.47;;;10.00;42.50;;;;;;5054277;28;20418;-82
2021/10/22 09:54:10;;;;;;;3.20;2.47;;;9.90;41.10;;;;;;5053989;28;20413;-83
2021/10/22 09:56:37;;;;;;;7.20;1.70;;;10.00;39.70;;;;;;5054483;28;20418;-80
2021/10/22 09:59:16;;;;;;;4.20;2.10;;;10.30;41.90;;;;;;5054426;28;20417;-81
2021/10/22 10:01:43;;;;;;;4.63;2.73;;;10.40;38.80;;;;;;5054432;28;20441;-81
2021/10/22 10:04:10;;;;;;;2.57;1.70;;;10.50;36.80;;;;;;5042186;28;20413;-80
2021/10/22 10:06:39;;;;;;;5.47;2.10;;;10.50;36.60;;;;;;5052436;28;20995;-82
2021/10/22 10:09:08;;;;;;;7.50;5.30;;;10.60;34.70;;;;;;5054056;28;20455;-82
2021/10/22 10:11:35;;;;;;;3.90;2.10;;;10.60;35.20;;;;;;5055620;28;20410;-82
2021/10/22 10:14:01;;;;;;;3.27;2.20;;;10.80;41.60;;;;;;5058322;28;20586;-81
2021/10/22 10:16:32;;;;;;;2.40;1.90;;;10.70;32.20;;;;;;5048322;28;20935;-81
2021/10/22 10:19:21;;;;;;;8.40;2.27;;;10.60;33.60;;;;;;5038331;28;20743;-82
2021/10/22 10:21:52;;;;;;;4.10;1.87;;;10.40;31.90;;;;;;5038334;28;20929;-82
2021/10/22 10:24:21;;;;;;;4.23;2.53;;;10.40;33.50;;;;;;5038067;28;20450;-82
2021/10/22 10:27:24;;;;;;;6.27;2.43;;;10.30;31.80;;;;;;5037616;28;20488;-82
2021/10/22 10:29:56;;;;;;;3.07;1.97;;;10.20;31.10;;;;;;5027842;28;20690;-82
2021/10/22 10:32:24;;;;;;;5.97;2.40;;;10.30;33.50;;;;;;5037740;28;20419;-81
2021/10/22 10:34:51;;;;;;;3.70;1.80;;;10.40;33.90;;;;;;5037277;28;20564;-82
2021/10/22 10:37:38;;;;;;;4.70;2.00;;;10.60;32.80;;;;;;5037521;28;20504;-83
2021/10/22 10:40:07;;;;;;;6.50;2.10;;;10.60;30.90;;;;;;5037151;28;20430;-83
2021/10/22 10:42:37;;;;;;;3.80;1.40;;;10.70;31.00;;;;;;5037511;28;20421;-81
2021/10/22 10:45:21;;;;;;;3.33;1.50;;;10.70;32.50;;;;;;5055034;28;20403;-82
2021/10/22 10:48:08;;;;;;;3.90;1.80;;;10.60;32.10;;;;;;5037141;28;20870;-82
2021/10/22 10:50:42;;;;;;;1.63;1.53;;;10.60;28.90;;;;;;5036120;28;20514;-82
2021/10/22 10:53:10;;;;;;;8.33;1.63;;;10.60;29.10;;;;;;5037150;28;20781;-78
2021/10/22 10:55:46;;;;;;;5.23;1.87;;;10.50;30.00;;;;;;5037056;28;20421;-80
2021/10/22 10:58:13;;;;;;;4.47;1.97;;;10.60;28.50;;;;;;5036713;28;20415;-79
2021/10/22 11:00:40;;;;;;;6.03;1.70;;;10.60;28.20;;;;;;5054870;28;20440;-78
2021/10/22 11:03:10;;;;;;;2.70;1.42;;;10.70;28.60;;;;;;5035863;28;20412;-78
2021/10/22 11:05:56;;;;;;;4.37;1.50;;;10.90;28.40;;;;;;5036679;28;20180;-79
2021/10/22 11:08:36;;;;;;;3.27;1.80;;;10.80;27.30;;;;;;5036412;28;20926;-79
2021/10/22 11:11:24;;;;;;;4.03;2.33;;;10.80;28.60;;;;;;5037073;28;20422;-80
2021/10/22 11:13:52;;;;;;;3.53;2.20;;;10.80;27.70;;;;;;5036724;28;20740;-79
2021/10/22 11:19:07;;;;;;;3.60;1.70;;;10.80;27.60;;;;;;5054402;28;20425;-79
2021/10/22 11:21:39;;;;;;;3.70;2.00;;;10.70;26.00;;;;;;5036483;28;20778;-79
2021/10/22 11:24:07;;;;;;;5.53;2.20;;;10.70;27.70;;;;;;5036832;28;20406;-80
2021/10/22 11:26:34;;;;;;;1.67;1.27;;;10.80;27.50;;;;;;5036483;28;20454;-80
2021/10/22 11:29:18;;;;;;;2.27;1.60;;;10.80;26.40;;;;;;5036579;28;20903;-80
2021/10/22 11:31:46;;;;;;;8.67;2.20;;;10.80;25.20;;;;;;5036221;28;20475;-79
2021/10/22 11:34:19;;;;;;;4.60;1.67;;;10.80;25.70;;;;;;5036439;28;20434;-80
2021/10/22 11:37:03;;;;;;;1.50;1.30;;;10.80;27.30;;;;;;5036115;28;20509;-79
2021/10/22 11:39:33;;;;;;;2.60;1.70;;;10.80;26.10;;;;;;5036694;28;20418;-80
2021/10/22 11:42:04;;;;;;;2.87;1.43;;;10.90;26.10;;;;;;5036110;28;20779;-79
2021/10/22 11:44:30;;;;;;;5.13;1.60;;;10.80;23.80;;;;;;5037899;28;20426;-79
2021/10/22 11:46:56;;;;;;;4.23;1.80;;;10.90;24.90;;;;;;5042056;28;20454;-80
2021/10/22 11:49:36;;;;;;;5.97;1.60;;;10.90;25.50;;;;;;5036523;28;20176;-79
2021/10/22 11:52:04;;;;;;;3.33;1.80;;;10.90;24.60;;;;;;5036271;28;20418;-79
2021/10/22 11:54:51;;;;;;;2.93;1.80;;;11.00;23.90;;;;;;5036497;28;20417;-79
2021/10/22 11:57:21;;;;;;;3.60;1.90;;;11.00;23.90;;;;;;5036017;28;20421;-80
2021/10/22 11:59:58;;;;;;;3.17;1.53;;;11.00;23.90;;;;;;5036335;28;20430;-81
2021/10/22 12:02:33;;;;;;;3.90;1.97;;;11.00;23.90;;;;;;5040533;28;20492;-81
2021/10/22 12:05:10;;;;;;;2.83;1.50;;;11.00;23.90;;;;;;4993973;28;21014;-82
2021/10/22 12:07:42;;;;;;;3.90;1.93;;;11.10;25.40;;;;;;4994165;28;20502;-82
2021/10/22 12:10:12;;;;;;;3.20;1.83;;;11.10;25.00;;;;;;4995437;28;20785;-84
2021/10/22 12:12:48;;;;;;;2.80;1.57;;;11.10;25.40;;;;;;4985787;28;20448;-81
2021/10/22 12:15:29;;;;;;;7.00;1.93;;;11.10;24.70;;;;;;4998585;28;20443;-82
2021/10/22 12:18:00;;;;;;;2.20;1.67;;;11.10;24.00;;;;;;4991058;28;20466;-81
2021/10/22 12:20:31;;;;;;;1.87;1.40;;;11.10;25.20;;;;;;4998439;28;20474;-82
2021/10/22 12:22:59;;;;;;;3.17;1.83;;;11.10;25.00;;;;;;4998594;28;20455;-82
2021/10/22 12:25:29;;;;;;;4.33;1.87;;;11.00;24.70;;;;;;4996921;28;20470;-82
2021/10/22 12:27:56;;;;;;;2.67;1.70;;;11.10;24.80;;;;;;4995638;28;20955;-82
2021/10/22 12:30:25;;;;;;;2.63;1.43;;;11.10;25.30;;;;;;4992159;28;20467;-83
2021/10/22 12:32:54;;;;;;;5.23;2.00;;;11.20;25.00;;;;;;4992152;28;20452;-83
2021/10/22 12:35:31;;;;;;;2.40;1.50;;;11.20;24.50;;;;;;4991918;28;20463;-83
2021/10/22 12:38:06;;;;;;;2.10;1.60;;;11.20;24.00;;;;;;4990650;28;20455;-83
2021/10/22 12:41:03;;;;;;;2.37;1.50;;;11.10;24.00;;;;;;4993055;28;20464;-83
2021/10/22 12:43:35;;;;;;;2.30;1.90;;;11.20;24.10;;;;;;4991090;28;20791;-83
2021/10/22 12:46:14;;;;;;;4.03;1.60;;;11.20;23.80;;;;;;4993611;28;20464;-83
2021/10/22 12:48:51;;;;;;;1.93;1.50;;;11.20;24.40;;;;;;4992237;28;20447;-82
2021/10/22 12:51:22;;;;;;;3.27;1.47;;;11.20;24.70;;;;;;4992793;28;20944;-83
2021/10/22 12:53:50;;;;;;;2.03;1.70;;;11.20;24.00;;;;;;4992096;28;20828;-82
2021/10/22 12:56:27;;;;;;;2.53;1.77;;;11.20;25.50;;;;;;4993175;28;20810;-83
2021/10/22 12:58:59;;;;;;;2.73;1.77;;;11.20;25.90;;;;;;4993144;28;20455;-82
2021/10/22 13:01:39;;;;;;;3.43;1.93;;;11.30;26.20;;;;;;4992760;28;20491;-83
2021/10/22 13:04:12;;;;;;;1.53;1.30;;;11.30;25.90;;;;;;4992573;28;20444;-82
2021/10/22 13:07:09;;;;;;;2.53;1.87;;;11.30;25.10;;;;;;4992488;28;21147;-82
2021/10/22 13:22:48;;;;;;;4.13;2.10;;;11.40;27.10;;;;;;4995002;28;20855;-81
2021/10/22 13:25:15;;;;;;;3.00;1.90;;;11.30;27.20;;;;;;4993248;28;20225;-80